Time,TemperatureF,DewpointF,PressureIn,WindDirection,WindDirectionDegrees,WindSpeedMPH,WindSpeedGustMPH,Humidity,HourlyPrecipIn,Conditions,Clouds,dailyrainin,SolarRadiationWatts/m^2,SoftwareType,DateUTC
2013-03-01 00:11:00,44.0,35.0,-100.00,NW,325,6.0,8.0,71,0.00,,,0.00,0.000000,,2013-03-01 07:11:00,
2013-03-01 00:22:00,44.0,35.0,-100.00,NW,325,6.0,8.0,71,0.00,,,0.00,0.000000,,2013-03-01 07:22:00,
2013-03-01 00:32:00,44.0,35.0,-100.00,NW,325,6.0,8.0,71,0.00,,,0.00,0.000000,,2013-03-01 07:32:00,
2013-03-01 00:42:00,44.0,35.0,-100.00,NW,325,6.0,8.0,71,0.00,,,0.00,0.000000,,2013-03-01 07:42:00,
2013-03-01 00:52:00,44.0,35.0,-100.00,NW,325,6.0,8.0,71,0.00,,,0.00,0.000000,,2013-03-01 07:52:00,
2013-03-01 01:22:00,43.0,35.0,-100.00,NW,320,6.0,9.0,72,0.00,,,0.00,0.000000,,2013-03-01 08:22:00,
2013-03-01 01:32:00,43.0,35.0,-100.00,NW,320,6.0,9.0,72,0.00,,,0.00,0.000000,,2013-03-01 08:32:00,
2013-03-01 01:42:00,43.0,35.0,-100.00,NW,320,6.0,9.0,72,0.00,,,0.00,0.000000,,2013-03-01 08:42:00,
2013-03-01 01:52:00,43.0,35.0,-100.00,NW,320,6.0,9.0,72,0.00,,,0.00,0.000000,,2013-03-01 08:52:00,
2013-03-01 02:12:00,42.0,34.0,-100.00,NW,304,4.0,7.0,73,0.00,,,0.00,0.000000,,2013-03-01 09:12:00,
2013-03-01 02:22:00,42.0,34.0,-100.00,NW,304,4.0,7.0,73,0.00,,,0.00,0.000000,,2013-03-01 09:22:00,
2013-03-01 02:32:00,42.0,34.0,-100.00,NW,304,4.0,7.0,73,0.00,,,0.00,0.000000,,2013-03-01 09:32:00,
2013-03-01 02:42:00,42.0,34.0,-100.00,NW,304,4.0,7.0,73,0.00,,,0.00,0.000000,,2013-03-01 09:42:00,
2013-03-01 02:52:00,42.0,34.0,-100.00,NW,304,4.0,7.0,73,0.00,,,0.00,0.000000,,2013-03-01 09:52:00,
2013-03-01 03:11:00,41.0,35.0,-100.00,WSW,258,2.0,5.0,79,0.00,,,0.00,0.000000,,2013-03-01 10:11:00,
2013-03-01 03:22:00,41.0,35.0,-100.00,WSW,258,2.0,5.0,79,0.00,,,0.00,0.000000,,2013-03-01 10:22:00,
2013-03-01 03:32:00,41.0,35.0,-100.00,WSW,258,2.0,5.0,79,0.00,,,0.00,0.000000,,2013-03-01 10:32:00,
2013-03-01 03:42:00,41.0,35.0,-100.00,WSW,258,2.0,5.0,79,0.00,,,0.00,0.000000,,2013-03-01 10:42:00,
2013-03-01 03:52:00,41.0,35.0,-100.00,WSW,258,2.0,5.0,79,0.00,,,0.00,0.000000,,2013-03-01 10:52:00,
2013-03-01 04:11:00,42.0,35.0,-100.00,NW,322,7.0,9.0,77,0.00,,,0.00,0.000000,,2013-03-01 11:11:00,
2013-03-01 04:22:00,42.0,35.0,-100.00,NW,322,7.0,9.0,77,0.00,,,0.00,0.000000,,2013-03-01 11:22:00,
2013-03-01 04:32:00,42.0,35.0,-100.00,NW,322,7.0,9.0,77,0.00,,,0.00,0.000000,,2013-03-01 11:32:00,
2013-03-01 04:42:00,42.0,35.0,-100.00,NW,322,7.0,9.0,77,0.00,,,0.00,0.000000,,2013-03-01 11:42:00,
2013-03-01 04:52:00,42.0,35.0,-100.00,NW,322,7.0,9.0,77,0.00,,,0.00,0.000000,,2013-03-01 11:52:00,
2013-03-01 05:21:00,40.0,32.0,-100.00,NW,311,6.0,11.0,73,0.00,,,0.00,0.000000,,2013-03-01 12:21:00,
2013-03-01 05:32:00,40.0,32.0,-100.00,NW,311,6.0,11.0,73,0.00,,,0.00,0.000000,,2013-03-01 12:32:00,
2013-03-01 05:42:00,40.0,32.0,-100.00,NW,311,6.0,11.0,73,0.00,,,0.00,0.000000,,2013-03-01 12:42:00,
2013-03-01 05:52:00,40.0,32.0,-100.00,NW,311,6.0,11.0,73,0.00,,,0.00,0.000000,,2013-03-01 12:52:00,
2013-03-01 06:22:00,39.0,32.0,-100.00,NNW,328,6.0,8.0,77,0.00,,,0.00,2.000000,,2013-03-01 13:22:00,
2013-03-01 06:32:00,39.0,32.0,-100.00,NNW,328,6.0,8.0,77,0.00,,,0.00,2.000000,,2013-03-01 13:32:00,
2013-03-01 06:42:00,39.0,32.0,-100.00,NNW,328,6.0,8.0,77,0.00,,,0.00,2.000000,,2013-03-01 13:42:00,
2013-03-01 06:52:00,39.0,32.0,-100.00,NNW,328,6.0,8.0,77,0.00,,,0.00,2.000000,,2013-03-01 13:52:00,
2013-03-01 07:21:00,44.0,34.0,-100.00,NW,326,9.0,13.0,69,0.00,,,0.00,118.000000,,2013-03-01 14:21:00,
2013-03-01 07:32:00,44.0,34.0,-100.00,NW,326,9.0,13.0,69,0.00,,,0.00,118.000000,,2013-03-01 14:32:00,
2013-03-01 07:42:00,44.0,34.0,-100.00,NW,326,9.0,13.0,69,0.00,,,0.00,118.000000,,2013-03-01 14:42:00,
2013-03-01 07:52:00,44.0,34.0,-100.00,NW,326,9.0,13.0,69,0.00,,,0.00,118.000000,,2013-03-01 14:52:00,
2013-03-01 08:21:00,48.0,35.0,-100.00,North,355,11.0,16.0,61,0.00,,,0.00,392.000000,,2013-03-01 15:21:00,
2013-03-01 08:32:00,48.0,35.0,-100.00,North,355,11.0,16.0,61,0.00,,,0.00,392.000000,,2013-03-01 15:32:00,
2013-03-01 08:42:00,48.0,35.0,-100.00,North,355,11.0,16.0,61,0.00,,,0.00,392.000000,,2013-03-01 15:42:00,
2013-03-01 08:52:00,48.0,35.0,-100.00,North,355,11.0,16.0,61,0.00,,,0.00,392.000000,,2013-03-01 15:52:00,
2013-03-01 09:11:00,52.0,36.0,-100.00,NNW,335,11.0,15.0,54,0.00,,,0.00,628.000000,,2013-03-01 16:11:00,
2013-03-01 09:21:00,52.0,36.0,-100.00,NNW,335,11.0,15.0,54,0.00,,,0.00,628.000000,,2013-03-01 16:21:00,
2013-03-01 09:32:00,52.0,36.0,-100.00,NNW,335,11.0,15.0,54,0.00,,,0.00,628.000000,,2013-03-01 16:32:00,
2013-03-01 09:42:00,52.0,36.0,-100.00,NNW,335,11.0,15.0,54,0.00,,,0.00,628.000000,,2013-03-01 16:42:00,
2013-03-01 09:51:00,52.0,36.0,-100.00,NNW,335,11.0,15.0,54,0.00,,,0.00,628.000000,,2013-03-01 16:51:00,
2013-03-01 10:11:00,55.0,33.0,-100.00,NNW,328,13.0,20.0,44,0.00,,,0.00,817.000000,,2013-03-01 17:11:00,
2013-03-01 10:21:00,55.0,33.0,-100.00,NNW,328,13.0,20.0,44,0.00,,,0.00,817.000000,,2013-03-01 17:21:00,
2013-03-01 10:32:00,55.0,33.0,-100.00,NNW,328,13.0,20.0,44,0.00,,,0.00,817.000000,,2013-03-01 17:32:00,
2013-03-01 10:41:00,55.0,33.0,-100.00,NNW,328,13.0,20.0,44,0.00,,,0.00,817.000000,,2013-03-01 17:41:00,
2013-03-01 10:52:00,55.0,33.0,-100.00,NNW,328,13.0,20.0,44,0.00,,,0.00,817.000000,,2013-03-01 17:52:00,
2013-03-01 11:22:00,56.0,32.0,-100.00,NNW,334,15.0,22.0,40,0.00,,,0.00,937.000000,,2013-03-01 18:22:00,
2013-03-01 11:32:00,56.0,32.0,-100.00,NNW,334,15.0,22.0,40,0.00,,,0.00,937.000000,,2013-03-01 18:32:00,
2013-03-01 11:42:00,56.0,32.0,-100.00,NNW,334,15.0,22.0,40,0.00,,,0.00,937.000000,,2013-03-01 18:42:00,
2013-03-01 11:52:00,56.0,32.0,-100.00,NNW,334,15.0,22.0,40,0.00,,,0.00,937.000000,,2013-03-01 18:52:00,
2013-03-01 12:11:00,58.0,32.0,-100.00,North,350,14.0,20.0,37,0.00,,,0.00,982.000000,,2013-03-01 19:11:00,
2013-03-01 12:21:00,58.0,32.0,-100.00,North,350,14.0,20.0,37,0.00,,,0.00,982.000000,,2013-03-01 19:21:00,
2013-03-01 12:32:00,58.0,32.0,-100.00,North,350,14.0,20.0,37,0.00,,,0.00,982.000000,,2013-03-01 19:32:00,
2013-03-01 12:42:00,58.0,32.0,-100.00,North,350,14.0,20.0,37,0.00,,,0.00,982.000000,,2013-03-01 19:42:00,
2013-03-01 12:51:00,58.0,32.0,-100.00,North,350,14.0,20.0,37,0.00,,,0.00,982.000000,,2013-03-01 19:51:00,
2013-03-01 13:11:00,60.0,32.0,-100.00,NNW,340,14.0,22.0,34,0.00,,,0.00,949.000000,,2013-03-01 20:11:00,
2013-03-01 13:21:00,60.0,32.0,-100.00,NNW,340,14.0,22.0,34,0.00,,,0.00,949.000000,,2013-03-01 20:21:00,
2013-03-01 13:32:00,60.0,32.0,-100.00,NNW,340,14.0,22.0,34,0.00,,,0.00,949.000000,,2013-03-01 20:32:00,
2013-03-01 13:42:00,60.0,32.0,-100.00,NNW,340,14.0,22.0,34,0.00,,,0.00,949.000000,,2013-03-01 20:42:00,
2013-03-01 13:52:00,60.0,32.0,-100.00,NNW,340,14.0,22.0,34,0.00,,,0.00,949.000000,,2013-03-01 20:52:00,
2013-03-01 14:21:00,62.0,31.0,-100.00,NNW,329,15.0,24.0,31,0.00,,,0.00,843.000000,,2013-03-01 21:21:00,
2013-03-01 14:32:00,62.0,31.0,-100.00,NNW,329,15.0,24.0,31,0.00,,,0.00,843.000000,,2013-03-01 21:32:00,
2013-03-01 14:42:00,62.0,31.0,-100.00,NNW,329,15.0,24.0,31,0.00,,,0.00,843.000000,,2013-03-01 21:42:00,
2013-03-01 14:51:00,62.0,31.0,-100.00,NNW,329,15.0,24.0,31,0.00,,,0.00,843.000000,,2013-03-01 21:51:00,
2013-03-01 15:21:00,62.0,29.0,-100.00,NNW,332,14.0,25.0,29,0.00,,,0.00,663.000000,,2013-03-01 22:21:00,
2013-03-01 15:32:00,62.0,29.0,-100.00,NNW,332,14.0,25.0,29,0.00,,,0.00,663.000000,,2013-03-01 22:32:00,
2013-03-01 15:42:00,62.0,29.0,-100.00,NNW,332,14.0,25.0,29,0.00,,,0.00,663.000000,,2013-03-01 22:42:00,
2013-03-01 15:51:00,62.0,29.0,-100.00,NNW,332,14.0,25.0,29,0.00,,,0.00,663.000000,,2013-03-01 22:51:00,
2013-03-01 16:21:00,60.0,27.0,-100.00,NNW,345,16.0,26.0,28,0.00,,,0.00,431.000000,,2013-03-01 23:21:00,
2013-03-01 16:32:00,60.0,27.0,-100.00,NNW,345,16.0,26.0,28,0.00,,,0.00,431.000000,,2013-03-01 23:32:00,
2013-03-01 16:41:00,60.0,27.0,-100.00,NNW,345,16.0,26.0,28,0.00,,,0.00,431.000000,,2013-03-01 23:41:00,
2013-03-01 16:52:00,60.0,27.0,-100.00,NNW,345,16.0,26.0,28,0.00,,,0.00,431.000000,,2013-03-01 23:52:00,
2013-03-01 17:22:00,57.0,27.0,-100.00,North,352,10.0,21.0,32,0.00,,,0.00,172.000000,,2013-03-02 00:22:00,
2013-03-01 17:32:00,57.0,27.0,-100.00,North,352,10.0,21.0,32,0.00,,,0.00,172.000000,,2013-03-02 00:32:00,
2013-03-01 17:42:00,57.0,27.0,-100.00,North,352,10.0,21.0,32,0.00,,,0.00,172.000000,,2013-03-02 00:42:00,
2013-03-01 17:52:00,57.0,27.0,-100.00,North,352,10.0,21.0,32,0.00,,,0.00,172.000000,,2013-03-02 00:52:00,
2013-03-01 18:11:00,53.0,31.0,-100.00,North,349,7.0,11.0,42,0.00,,,0.00,8.000000,,2013-03-02 01:11:00,
2013-03-01 18:21:00,53.0,31.0,-100.00,North,349,7.0,11.0,42,0.00,,,0.00,8.000000,,2013-03-02 01:21:00,
2013-03-01 18:31:00,53.0,31.0,-100.00,North,349,7.0,11.0,42,0.00,,,0.00,8.000000,,2013-03-02 01:31:00,
2013-03-01 18:41:00,53.0,31.0,-100.00,North,349,7.0,11.0,42,0.00,,,0.00,8.000000,,2013-03-02 01:41:00,
2013-03-01 18:51:00,53.0,31.0,-100.00,North,349,7.0,11.0,42,0.00,,,0.00,8.000000,,2013-03-02 01:51:00,
2013-03-01 19:22:00,52.0,32.0,-100.00,NNW,343,7.0,10.0,47,0.00,,,0.00,0.000000,,2013-03-02 02:22:00,
2013-03-01 19:32:00,52.0,32.0,-100.00,NNW,343,7.0,10.0,47,0.00,,,0.00,0.000000,,2013-03-02 02:32:00,
2013-03-01 19:42:00,52.0,32.0,-100.00,NNW,343,7.0,10.0,47,0.00,,,0.00,0.000000,,2013-03-02 02:42:00,
2013-03-01 19:52:00,52.0,32.0,-100.00,NNW,343,7.0,10.0,47,0.00,,,0.00,0.000000,,2013-03-02 02:52:00,
2013-03-01 20:11:00,49.0,34.0,-100.00,North,349,4.0,7.0,57,0.00,,,0.00,0.000000,,2013-03-02 03:11:00,
2013-03-01 20:21:00,49.0,34.0,-100.00,North,349,4.0,7.0,57,0.00,,,0.00,0.000000,,2013-03-02 03:21:00,
2013-03-01 20:32:00,49.0,34.0,-100.00,North,349,4.0,7.0,57,0.00,,,0.00,0.000000,,2013-03-02 03:32:00,
2013-03-01 20:42:00,49.0,34.0,-100.00,North,349,4.0,7.0,57,0.00,,,0.00,0.000000,,2013-03-02 03:42:00,
2013-03-01 20:52:00,49.0,34.0,-100.00,North,349,4.0,7.0,57,0.00,,,0.00,0.000000,,2013-03-02 03:52:00,
2013-03-01 21:11:00,48.0,34.0,-100.00,North,355,5.0,6.0,57,0.00,,,0.00,0.000000,,2013-03-02 04:11:00,
2013-03-01 21:21:00,48.0,34.0,-100.00,North,355,5.0,6.0,57,0.00,,,0.00,0.000000,,2013-03-02 04:21:00,
2013-03-01 21:32:00,48.0,34.0,-100.00,North,355,5.0,6.0,57,0.00,,,0.00,0.000000,,2013-03-02 04:32:00,
2013-03-01 21:42:00,48.0,34.0,-100.00,North,355,5.0,6.0,57,0.00,,,0.00,0.000000,,2013-03-02 04:42:00,
2013-03-01 21:51:00,48.0,34.0,-100.00,North,355,5.0,6.0,57,0.00,,,0.00,0.000000,,2013-03-02 04:51:00,
2013-03-01 22:12:00,47.0,33.0,-100.00,North,359,6.0,8.0,57,0.00,,,0.00,0.000000,,2013-03-02 05:12:00,
2013-03-01 22:22:00,47.0,33.0,-100.00,North,359,6.0,8.0,57,0.00,,,0.00,0.000000,,2013-03-02 05:22:00,
2013-03-01 22:32:00,47.0,33.0,-100.00,North,359,6.0,8.0,57,0.00,,,0.00,0.000000,,2013-03-02 05:32:00,
2013-03-01 22:42:00,47.0,33.0,-100.00,North,359,6.0,8.0,57,0.00,,,0.00,0.000000,,2013-03-02 05:42:00,
2013-03-01 22:52:00,47.0,33.0,-100.00,North,359,6.0,8.0,57,0.00,,,0.00,0.000000,,2013-03-02 05:52:00,
2013-03-01 23:21:00,46.0,32.0,-100.00,North,10,6.0,9.0,58,0.00,,,0.00,0.000000,,2013-03-02 06:21:00,
2013-03-01 23:32:00,46.0,32.0,-100.00,North,10,6.0,9.0,58,0.00,,,0.00,0.000000,,2013-03-02 06:32:00,
2013-03-01 23:42:00,46.0,32.0,-100.00,North,10,6.0,9.0,58,0.00,,,0.00,0.000000,,2013-03-02 06:42:00,
2013-03-01 23:51:00,46.0,32.0,-100.00,North,10,6.0,9.0,58,0.00,,,0.00,0.000000,,2013-03-02 06:51:00,